Time,TemperatureF,DewpointF,PressureIn,WindDirection,WindDirectionDegrees,WindSpeedMPH,WindSpeedGustMPH,Humidity,HourlyPrecipIn,Conditions,Clouds,dailyrainin,SoftwareType,DateUTC
2013-07-01 00:01:00,81.0,74.0,-100.00,East,86,5.0,11.0,80,-99.99,,,-99.99,,2013-07-01 04:01:00,
2013-07-01 00:11:00,81.0,73.0,-100.00,SSE,155,8.0,22.0,77,-99.99,,,-99.99,,2013-07-01 04:11:00,
2013-07-01 00:22:00,81.0,73.0,-100.00,SSE,155,8.0,22.0,77,-99.99,,,-99.99,,2013-07-01 04:22:00,
2013-07-01 00:32:00,81.0,73.0,-100.00,SSE,155,8.0,22.0,77,-99.99,,,-99.99,,2013-07-01 04:32:00,
2013-07-01 00:43:00,81.0,73.0,-100.00,SSE,155,8.0,22.0,77,-99.99,,,-99.99,,2013-07-01 04:43:00,
2013-07-01 00:53:00,81.0,72.0,-100.00,South,173,8.0,21.0,73,-99.99,,,-99.99,,2013-07-01 04:53:00,
2013-07-01 01:02:00,81.0,72.0,-100.00,SW,218,8.0,17.0,75,-99.99,,,-99.99,,2013-07-01 05:02:00,
2013-07-01 01:11:00,81.0,72.0,-100.00,SW,219,7.0,15.0,75,-99.99,,,-99.99,,2013-07-01 05:11:00,
2013-07-01 01:22:00,81.0,72.0,-100.00,SSW,198,7.0,14.0,75,-99.99,,,-99.99,,2013-07-01 05:22:00,
2013-07-01 01:33:00,81.0,72.0,-100.00,SSW,205,6.0,15.0,75,-99.99,,,-99.99,,2013-07-01 05:33:00,
2013-07-01 01:42:00,80.0,71.0,-100.00,SW,217,9.0,18.0,75,-99.99,,,-99.99,,2013-07-01 05:42:00,
2013-07-01 01:52:00,81.0,72.0,-100.00,South,179,7.0,20.0,75,-99.99,,,-99.99,,2013-07-01 05:52:00,
2013-07-01 02:02:00,81.0,73.0,-100.00,South,180,5.0,13.0,76,-99.99,,,-99.99,,2013-07-01 06:02:00,
2013-07-01 02:12:00,81.0,73.0,-100.00,East,101,7.0,15.0,78,-99.99,,,-99.99,,2013-07-01 06:12:00,
2013-07-01 02:24:00,81.0,73.0,-100.00,South,172,6.0,10.0,78,-99.99,,,-99.99,,2013-07-01 06:24:00,
2013-07-01 02:33:00,81.0,73.0,-100.00,ESE,104,6.0,12.0,78,-99.99,,,-99.99,,2013-07-01 06:33:00,
2013-07-01 02:43:00,81.0,73.0,-100.00,ENE,65,6.0,11.0,78,-99.99,,,-99.99,,2013-07-01 06:43:00,
2013-07-01 02:53:00,81.0,73.0,-100.00,SE,132,6.0,11.0,78,-99.99,,,-99.99,,2013-07-01 06:53:00,
2013-07-01 03:01:00,81.0,73.0,-100.00,ESE,110,6.0,11.0,78,-99.99,,,-99.99,,2013-07-01 07:01:00,
2013-07-01 03:11:00,82.0,74.0,-100.00,SE,142,5.0,12.0,78,-99.99,,,-99.99,,2013-07-01 07:11:00,
2013-07-01 03:22:00,81.0,73.0,-100.00,SSE,150,6.0,13.0,78,-99.99,,,-99.99,,2013-07-01 07:22:00,
2013-07-01 03:33:00,81.0,73.0,-100.00,ESE,115,5.0,11.0,77,-99.99,,,-99.99,,2013-07-01 07:33:00,
2013-07-01 03:43:00,81.0,73.0,-100.00,ENE,72,5.0,14.0,77,-99.99,,,-99.99,,2013-07-01 07:43:00,
2013-07-01 03:53:00,82.0,74.0,-100.00,East,101,5.0,11.0,78,-99.99,,,-99.99,,2013-07-01 07:53:00,
2013-07-01 04:01:00,81.0,74.0,-100.00,South,173,6.0,15.0,79,-99.99,,,-99.99,,2013-07-01 08:01:00,
2013-07-01 04:11:00,81.0,73.0,-100.00,East,98,6.0,15.0,78,-99.99,,,-99.99,,2013-07-01 08:11:00,
2013-07-01 04:22:00,82.0,74.0,-100.00,NE,41,5.0,11.0,78,-99.99,,,-99.99,,2013-07-01 08:22:00,
2013-07-01 04:33:00,81.0,73.0,-100.00,SE,146,7.0,13.0,77,-99.99,,,-99.99,,2013-07-01 08:33:00,
2013-07-01 04:42:00,82.0,74.0,-100.00,East,96,7.0,13.0,76,-99.99,,,-99.99,,2013-07-01 08:42:00,
2013-07-01 04:52:00,81.0,73.0,-100.00,East,82,7.0,15.0,77,-99.99,,,-99.99,,2013-07-01 08:52:00,
2013-07-01 05:02:00,81.0,74.0,-100.00,SE,134,7.0,12.0,79,-99.99,,,-99.99,,2013-07-01 09:02:00,
2013-07-01 05:11:00,81.0,74.0,-100.00,ESE,121,7.0,16.0,79,-99.99,,,-99.99,,2013-07-01 09:11:00,
2013-07-01 05:22:00,82.0,75.0,-100.00,South,183,6.0,11.0,80,-99.99,,,-99.99,,2013-07-01 09:22:00,
2013-07-01 05:34:00,81.0,74.0,-100.00,South,172,5.0,12.0,80,-99.99,,,-99.99,,2013-07-01 09:34:00,
2013-07-01 05:43:00,81.0,75.0,-100.00,ESE,110,6.0,13.0,81,-99.99,,,-99.99,,2013-07-01 09:43:00,
2013-07-01 05:53:00,81.0,75.0,-100.00,ESE,110,6.0,14.0,81,-99.99,,,-99.99,,2013-07-01 09:53:00,
2013-07-01 06:03:00,81.0,75.0,-100.00,East,84,6.0,11.0,82,-99.99,,,-99.99,,2013-07-01 10:03:00,
2013-07-01 06:11:00,82.0,76.0,-100.00,ENE,76,7.0,14.0,82,-99.99,,,-99.99,,2013-07-01 10:11:00,
2013-07-01 06:22:00,81.0,75.0,-100.00,East,96,8.0,19.0,81,-99.99,,,-99.99,,2013-07-01 10:22:00,
2013-07-01 06:33:00,81.0,72.0,-100.00,SE,146,10.0,19.0,75,-99.99,,,-99.99,,2013-07-01 10:33:00,
2013-07-01 06:42:00,81.0,73.0,-100.00,East,82,9.0,17.0,76,-99.99,,,-99.99,,2013-07-01 10:42:00,
2013-07-01 06:52:00,81.0,73.0,-100.00,NE,44,8.0,15.0,78,-99.99,,,-99.99,,2013-07-01 10:52:00,
2013-07-01 07:02:00,80.0,72.0,-100.00,ENE,65,9.0,17.0,78,-99.99,,,-99.99,,2013-07-01 11:02:00,
2013-07-01 07:11:00,81.0,74.0,-100.00,South,191,10.0,23.0,79,-99.99,,,-99.99,,2013-07-01 11:11:00,
2013-07-01 07:22:00,81.0,74.0,-100.00,ENE,73,7.0,14.0,80,-99.99,,,-99.99,,2013-07-01 11:22:00,
2013-07-01 07:33:00,81.0,74.0,-100.00,ENE,70,7.0,14.0,80,-99.99,,,-99.99,,2013-07-01 11:33:00,
2013-07-01 07:43:00,81.0,74.0,-100.00,East,100,7.0,13.0,80,-99.99,,,-99.99,,2013-07-01 11:43:00,
2013-07-01 07:52:00,81.0,74.0,-100.00,South,184,7.0,16.0,79,-99.99,,,-99.99,,2013-07-01 11:52:00,
2013-07-01 08:01:00,81.0,74.0,-100.00,ESE,120,8.0,17.0,80,-99.99,,,-99.99,,2013-07-01 12:01:00,
2013-07-01 08:11:00,81.0,75.0,-100.00,NE,42,9.0,19.0,81,-99.99,,,-99.99,,2013-07-01 12:11:00,
2013-07-01 08:22:00,81.0,74.0,-100.00,SE,131,9.0,18.0,80,-99.99,,,-99.99,,2013-07-01 12:22:00,
2013-07-01 08:33:00,81.0,75.0,-100.00,NE,48,9.0,18.0,81,-99.99,,,-99.99,,2013-07-01 12:33:00,
2013-07-01 08:43:00,81.0,74.0,-100.00,East,91,8.0,16.0,80,-99.99,,,-99.99,,2013-07-01 12:43:00,
2013-07-01 08:53:00,81.0,75.0,-100.00,NE,56,7.0,15.0,81,-99.99,,,-99.99,,2013-07-01 12:53:00,
2013-07-01 09:02:00,81.0,74.0,-100.00,ESE,118,7.0,17.0,79,-99.99,,,-99.99,,2013-07-01 13:02:00,
2013-07-01 09:12:00,82.0,74.0,-100.00,ENE,66,6.0,13.0,77,-99.99,,,-99.99,,2013-07-01 13:12:00,
2013-07-01 09:23:00,82.0,74.0,-100.00,ENE,66,6.0,12.0,76,-99.99,,,-99.99,,2013-07-01 13:23:00,
2013-07-01 09:33:00,83.0,74.0,-100.00,NE,42,7.0,15.0,75,-99.99,,,-99.99,,2013-07-01 13:33:00,
2013-07-01 09:53:00,83.0,74.0,-100.00,SE,128,7.0,14.0,74,-99.99,,,-99.99,,2013-07-01 13:53:00,
2013-07-01 10:01:00,83.0,74.0,-100.00,South,179,7.0,16.0,74,-99.99,,,-99.99,,2013-07-01 14:01:00,
2013-07-01 10:34:00,83.0,74.0,-100.00,SSE,158,8.0,15.0,74,-99.99,,,-99.99,,2013-07-01 14:34:00,
2013-07-01 10:43:00,84.0,75.0,-100.00,East,87,9.0,21.0,74,-99.99,,,-99.99,,2013-07-01 14:43:00,
2013-07-01 11:34:00,84.0,74.0,-100.00,ENE,75,9.0,19.0,72,-99.99,,,-99.99,,2013-07-01 15:34:00,
2013-07-01 11:43:00,84.0,74.0,-100.00,ENE,62,9.0,19.0,73,-99.99,,,-99.99,,2013-07-01 15:43:00,
2013-07-01 12:11:00,84.0,74.0,-100.00,East,82,7.0,12.0,73,-99.99,,,-99.99,,2013-07-01 16:11:00,
2013-07-01 12:53:00,85.0,74.0,-100.00,NE,44,7.0,14.0,70,-99.99,,,-99.99,,2013-07-01 16:53:00,
2013-07-01 14:33:00,85.0,74.0,-100.00,South,180,6.0,12.0,69,-99.99,,,-99.99,,2013-07-01 18:33:00,
2013-07-01 15:02:00,85.0,75.0,-100.00,NE,49,10.0,19.0,71,-99.99,,,-99.99,,2013-07-01 19:02:00,
2013-07-01 15:33:00,84.0,74.0,-100.00,SE,125,9.0,19.0,73,-99.99,,,-99.99,,2013-07-01 19:33:00,
2013-07-01 15:44:00,83.0,74.0,-100.00,South,186,9.0,20.0,74,-99.99,,,-99.99,,2013-07-01 19:44:00,
2013-07-01 15:52:00,84.0,75.0,-100.00,NE,41,9.0,27.0,74,-99.99,,,-99.99,,2013-07-01 19:52:00,
2013-07-01 16:43:00,84.0,74.0,-100.00,NE,45,9.0,18.0,72,-99.99,,,-99.99,,2013-07-01 20:43:00,
2013-07-01 16:52:00,84.0,74.0,-100.00,South,177,9.0,21.0,72,-99.99,,,-99.99,,2013-07-01 20:52:00,
2013-07-01 17:34:00,83.0,73.0,-100.00,ESE,115,8.0,14.0,73,-99.99,,,-99.99,,2013-07-01 21:34:00,
2013-07-01 17:43:00,83.0,74.0,-100.00,ESE,108,7.0,14.0,74,-99.99,,,-99.99,,2013-07-01 21:43:00,
2013-07-01 17:53:00,83.0,74.0,-100.00,SSE,165,7.0,15.0,74,-99.99,,,-99.99,,2013-07-01 21:53:00,
2013-07-01 18:24:00,83.0,73.0,-100.00,SE,124,7.0,14.0,73,-99.99,,,-99.99,,2013-07-01 22:24:00,
2013-07-01 18:43:00,83.0,74.0,-100.00,SE,130,6.0,12.0,75,-99.99,,,-99.99,,2013-07-01 22:43:00,
2013-07-01 18:53:00,83.0,74.0,-100.00,SE,131,5.0,10.0,75,-99.99,,,-99.99,,2013-07-01 22:53:00,
2013-07-01 19:01:00,83.0,74.0,-100.00,South,174,7.0,18.0,75,-99.99,,,-99.99,,2013-07-01 23:01:00,
2013-07-01 19:11:00,83.0,74.0,-100.00,SE,124,5.0,11.0,74,-99.99,,,-99.99,,2013-07-01 23:11:00,
2013-07-01 19:22:00,84.0,75.0,-100.00,SSE,159,4.0,9.0,75,-99.99,,,-99.99,,2013-07-01 23:22:00,
2013-07-01 19:33:00,84.0,76.0,-100.00,SSW,201,6.0,16.0,76,-99.99,,,-99.99,,2013-07-01 23:33:00,
2013-07-01 19:44:00,83.0,73.0,-100.00,East,80,5.0,9.0,72,-99.99,,,-99.99,,2013-07-01 23:44:00,
2013-07-01 19:53:00,83.0,70.0,-100.00,East,93,5.0,11.0,65,-99.99,,,-99.99,,2013-07-01 23:53:00,
2013-07-01 20:01:00,83.0,71.0,-100.00,East,83,4.0,12.0,68,-99.99,,,-99.99,,2013-07-02 00:01:00,
2013-07-01 20:12:00,83.0,71.0,-100.00,SSW,212,5.0,10.0,67,-99.99,,,-99.99,,2013-07-02 00:12:00,
2013-07-01 20:22:00,83.0,71.0,-100.00,SSW,200,5.0,11.0,68,-99.99,,,-99.99,,2013-07-02 00:22:00,
2013-07-01 20:34:00,83.0,72.0,-100.00,WSW,248,4.0,10.0,69,-99.99,,,-99.99,,2013-07-02 00:34:00,
2013-07-01 20:43:00,82.0,71.0,-100.00,SW,214,6.0,12.0,70,-99.99,,,-99.99,,2013-07-02 00:43:00,
2013-07-01 20:53:00,82.0,71.0,-100.00,SW,222,2.0,5.0,70,-99.99,,,-99.99,,2013-07-02 00:53:00,
2013-07-01 21:01:00,83.0,73.0,-100.00,West,266,4.0,5.0,71,-99.99,,,-99.99,,2013-07-02 01:01:00,
2013-07-01 21:11:00,82.0,72.0,-100.00,West,269,2.0,4.0,71,-99.99,,,-99.99,,2013-07-02 01:11:00,
2013-07-01 21:33:00,82.0,73.0,-100.00,SW,218,0.0,1.0,74,-99.99,,,-99.99,,2013-07-02 01:33:00,
2013-07-01 21:53:00,82.0,73.0,-100.00,North,0,0.0,0.0,75,-99.99,,,-99.99,,2013-07-02 01:53:00,